Strona główna
METAR-TAF:

METAR-TAF

Lotnisko :

Kair, Egipt

Port lotniczy Kair

Szerokość geograficzna: 30-08N, Długość geograficzna: 031-24E, wysokość: 64 m

Aktualna obserwacja pogody

Raport powstał 21 minut temu, godzina 13:30 UTC
Wiatr 25 kt od południowy zachód
Temperatura 22°C
Wilgotność 17%
Ciśnienie 1011 hPa
Widzialność: 4000 m
piasek

METAR: HECA 181330Z 22025KT 4000 SA NSC 22/M04 Q1011 NOSIG

czas: 15:51 (13:51 UTC)

Prognoza

Raport powstał 51 minut temu, godzina 13:00 UTC
Prognoza ważna od 18 godzina 13 UTC do 19 godzina 18 UTC
Wiatr 12 kt od zachodnio-południowy zachód
Widzialność 10 km lub więcej
Mało chmury na wysokości 2500 ft
Przejściowo
od 18 godzina 13 UTC do 18 godzina 20 UTC
Wiatr 15 kt od południowy zachód w porywach dochodzący do 25 kt
Widzialność: 6000 m
Przejściowo
od 18 godzina 13 UTC do 18 godzina 18 UTC
Widzialność: 4000 m
piasek

TAF: HECA 181300Z 1813/1918 24012KT 9999 FEW025 TEMPO 1813/1820 22015G25KT 6000 NSC TEMPO 1813/1818 4000 SA

Obserwacja i prognoza pogody dla ponad 4000 lotnisk (raport METAR i TAF).

Dostępne stacje oznaczono żółtymi i czerwonymi punktami na mapie.

Najedź kursorem aby zobaczyć nazwę stacji.

Kliknij aby zobaczyć obserwacje i prognozy pogody.

Aby zmienić mapę: kliknij na zielony przycisk z czarnym krzyżykiem, aby powiększyć; na zielony przycisk z myślnikiem, aby pomniejszyć; na zielone strzałki, aby przejść do map sąsiednich.


METAR-TAF: